createdAt,value
2018-10-11T00:00:42.599Z,1007.74
2018-10-11T00:01:42.580Z,1007.74
2018-10-11T00:02:42.560Z,1007.73
2018-10-11T00:03:42.548Z,1007.76
2018-10-11T00:04:42.525Z,1007.75
2018-10-11T00:05:42.507Z,1007.77
2018-10-11T00:06:42.487Z,1007.70
2018-10-11T00:07:42.470Z,1007.70
2018-10-11T00:08:42.450Z,1007.72
2018-10-11T00:09:42.436Z,1007.73
2018-10-11T00:10:42.414Z,1007.72
2018-10-11T00:11:42.397Z,1007.68
2018-10-11T00:12:42.378Z,1007.69
2018-10-11T00:13:42.357Z,1007.69
2018-10-11T00:14:42.348Z,1007.67
2018-10-11T00:15:42.321Z,1007.68
2018-10-11T00:16:42.305Z,1007.71
2018-10-11T00:17:42.288Z,1007.67
2018-10-11T00:18:42.264Z,1007.70
2018-10-11T00:19:42.247Z,1007.70
2018-10-11T00:20:42.229Z,1007.71
2018-10-11T00:21:42.208Z,1007.67
2018-10-11T00:22:42.193Z,1007.69
2018-10-11T00:23:42.174Z,1007.74
2018-10-11T00:24:42.154Z,1007.68
2018-10-11T00:25:42.136Z,1007.63
2018-10-11T00:26:42.120Z,1007.64
2018-10-11T00:27:42.100Z,1007.63
2018-10-11T00:28:42.078Z,1007.61
2018-10-11T00:29:42.061Z,1007.61
2018-10-11T00:30:42.104Z,1007.59
2018-10-11T00:31:42.024Z,1007.61
2018-10-11T00:32:42.004Z,1007.61
2018-10-11T00:33:41.985Z,1007.64
2018-10-11T00:34:41.965Z,1007.64
2018-10-11T00:35:41.950Z,1007.63
2018-10-11T00:36:41.937Z,1007.61
2018-10-11T00:37:41.910Z,1007.56
2018-10-11T00:38:41.891Z,1007.52
2018-10-11T00:39:41.873Z,1007.47
2018-10-11T00:40:41.853Z,1007.46
2018-10-11T00:41:41.838Z,1007.46
2018-10-11T00:42:41.820Z,1007.52
2018-10-11T00:43:41.806Z,1007.53
2018-10-11T00:44:41.780Z,1007.57
2018-10-11T00:45:41.763Z,1007.59
2018-10-11T00:46:41.743Z,1007.59
2018-10-11T00:47:41.724Z,1007.58
2018-10-11T00:48:41.709Z,1007.55
2018-10-11T00:49:41.686Z,1007.54
2018-10-11T00:50:41.669Z,1007.54
2018-10-11T00:51:41.649Z,1007.49
2018-10-11T00:52:41.630Z,1007.52
2018-10-11T00:53:41.609Z,1007.54
2018-10-11T00:54:41.592Z,1007.52
2018-10-11T00:55:41.573Z,1007.49
2018-10-11T00:56:41.553Z,1007.44
2018-10-11T00:57:41.537Z,1007.43
2018-10-11T00:58:41.516Z,1007.39
2018-10-11T00:59:41.499Z,1007.40
2018-10-11T01:00:41.483Z,1007.41
2018-10-11T01:01:41.461Z,1007.37
2018-10-11T01:02:41.458Z,1007.29
2018-10-11T01:03:41.430Z,1007.31
2018-10-11T01:04:41.406Z,1007.30
2018-10-11T01:05:41.388Z,1007.34
2018-10-11T01:06:41.368Z,1007.35
2018-10-11T01:07:41.351Z,1007.37
2018-10-11T01:08:41.331Z,1007.40
2018-10-11T01:09:41.311Z,1007.41
2018-10-11T01:10:41.293Z,1007.40
2018-10-11T01:11:41.274Z,1007.41
2018-10-11T01:12:41.255Z,1007.38
2018-10-11T01:13:41.235Z,1007.42
2018-10-11T01:14:41.219Z,1007.46
2018-10-11T01:15:41.201Z,1007.46
2018-10-11T01:16:41.181Z,1007.39
2018-10-11T01:17:41.162Z,1007.32
2018-10-11T01:18:41.144Z,1007.36
2018-10-11T01:19:41.123Z,1007.31
2018-10-11T01:20:41.104Z,1007.33
2018-10-11T01:21:41.085Z,1007.32
2018-10-11T01:22:41.065Z,1007.34
2018-10-11T01:23:41.069Z,1007.31
2018-10-11T01:24:41.027Z,1007.31
2018-10-11T01:25:41.008Z,1007.33
2018-10-11T01:26:40.994Z,1007.31
2018-10-11T01:27:40.969Z,1007.38
2018-10-11T01:28:40.952Z,1007.36
2018-10-11T01:29:40.980Z,1007.34
2018-10-11T01:30:40.912Z,1007.34
2018-10-11T01:31:40.896Z,1007.32
2018-10-11T01:32:40.878Z,1007.24
2018-10-11T01:33:40.860Z,1007.24
2018-10-11T01:34:40.839Z,1007.23
2018-10-11T01:35:40.821Z,1007.21
2018-10-11T01:36:40.802Z,1007.20
2018-10-11T01:37:40.788Z,1007.28
2018-10-11T01:38:40.863Z,1007.29
2018-10-11T01:39:40.745Z,1007.26
2018-10-11T01:40:40.725Z,1007.25
2018-10-11T01:41:40.711Z,1007.28
2018-10-11T01:42:40.686Z,1007.27
2018-10-11T01:43:40.668Z,1007.31
2018-10-11T01:44:40.650Z,1007.35
2018-10-11T01:45:40.629Z,1007.28
2018-10-11T01:46:40.615Z,1007.26
2018-10-11T01:47:40.591Z,1007.26
2018-10-11T01:48:40.572Z,1007.22
2018-10-11T01:49:40.557Z,1007.21
2018-10-11T01:50:40.534Z,1007.19
2018-10-11T01:51:40.515Z,1007.24
2018-10-11T01:52:40.502Z,1007.20
2018-10-11T01:53:40.477Z,1007.24
2018-10-11T01:54:40.459Z,1007.20
2018-10-11T01:55:40.437Z,1007.17
2018-10-11T01:56:40.479Z,1007.14
2018-10-11T01:57:40.399Z,1007.17
2018-10-11T01:58:40.382Z,1007.22
2018-10-11T01:59:40.361Z,1007.24
2018-10-11T02:00:40.346Z,1007.24
2018-10-11T02:01:40.327Z,1007.17
2018-10-11T02:02:40.304Z,1007.13
2018-10-11T02:03:40.290Z,1007.07
2018-10-11T02:04:40.267Z,1007.08
2018-10-11T02:05:40.247Z,1007.09
2018-10-11T02:06:40.228Z,1007.08
2018-10-11T02:07:40.207Z,1007.07
2018-10-11T02:08:40.188Z,1007.06
2018-10-11T02:09:40.176Z,1007.05
2018-10-11T02:10:40.150Z,1007.07
2018-10-11T02:11:40.131Z,1007.09
2018-10-11T02:12:40.114Z,1007.09
2018-10-11T02:13:40.093Z,1007.07
2018-10-11T02:14:40.075Z,1007.02
2018-10-11T02:15:40.054Z,1007.03
2018-10-11T02:16:40.035Z,1007.03
2018-10-11T02:17:40.015Z,1006.99
2018-10-11T02:18:39.996Z,1006.99
2018-10-11T02:19:39.981Z,1006.98
2018-10-11T02:20:39.958Z,1006.99
2018-10-11T02:21:39.939Z,1006.95
2018-10-11T02:22:39.920Z,1006.96
2018-10-11T02:23:39.903Z,1006.93
2018-10-11T02:24:39.897Z,1006.86
2018-10-11T02:25:39.867Z,1006.88
2018-10-11T02:26:39.843Z,1006.86
2018-10-11T02:27:39.824Z,1006.86
2018-10-11T02:28:39.808Z,1006.87
2018-10-11T02:29:39.786Z,1006.88
2018-10-11T02:30:39.765Z,1006.82
2018-10-11T02:31:39.758Z,1006.81
2018-10-11T02:32:39.727Z,1006.80
2018-10-11T02:33:39.711Z,1006.74
2018-10-11T02:34:39.688Z,1006.70
2018-10-11T02:35:39.671Z,1006.73
2018-10-11T02:36:39.651Z,1006.77
2018-10-11T02:37:39.632Z,1006.76
2018-10-11T02:38:39.616Z,1006.72
2018-10-11T02:39:39.598Z,1006.68
2018-10-11T02:40:39.580Z,1006.71
2018-10-11T02:41:39.558Z,1006.70
2018-10-11T02:42:39.538Z,1006.69
2018-10-11T02:43:39.517Z,1006.72
2018-10-11T02:44:39.499Z,1006.77
2018-10-11T02:45:39.483Z,1006.75
2018-10-11T02:46:39.460Z,1006.74
2018-10-11T02:47:39.441Z,1006.73
2018-10-11T02:48:39.420Z,1006.69
2018-10-11T02:49:39.401Z,1006.74
2018-10-11T02:50:39.383Z,1006.74
2018-10-11T02:51:39.362Z,1006.73
2018-10-11T02:52:39.345Z,1006.79
2018-10-11T02:53:39.325Z,1006.75
2018-10-11T02:54:39.310Z,1006.75
2018-10-11T02:55:39.287Z,1006.75
2018-10-11T02:56:39.269Z,1006.73
2018-10-11T02:57:39.258Z,1006.71
2018-10-11T02:58:39.228Z,1006.73
2018-10-11T02:59:39.210Z,1006.74
2018-10-11T03:00:39.196Z,1006.80
2018-10-11T03:01:39.171Z,1006.79
2018-10-11T03:02:39.151Z,1006.83
2018-10-11T03:03:39.133Z,1006.82
2018-10-11T03:04:39.115Z,1006.84
2018-10-11T03:05:39.098Z,1006.79
2018-10-11T03:06:39.076Z,1006.79
2018-10-11T03:07:39.056Z,1006.78
2018-10-11T03:08:39.038Z,1006.75
2018-10-11T03:09:39.025Z,1006.72
2018-10-11T03:10:39.002Z,1006.68
2018-10-11T03:11:38.980Z,1006.72
2018-10-11T03:12:38.961Z,1006.70
2018-10-11T03:13:38.938Z,1006.69
2018-10-11T03:14:38.922Z,1006.68
2018-10-11T03:15:38.902Z,1006.70
2018-10-11T03:16:38.881Z,1006.74
2018-10-11T03:17:38.867Z,1006.72
2018-10-11T03:18:38.843Z,1006.70
2018-10-11T03:19:38.826Z,1006.70
2018-10-11T03:20:38.806Z,1006.72
2018-10-11T03:21:38.794Z,1006.67
2018-10-11T03:22:38.766Z,1006.62
2018-10-11T03:23:38.746Z,1006.66
2018-10-11T03:24:38.728Z,1006.63
2018-10-11T03:25:38.709Z,1006.64
2018-10-11T03:26:38.686Z,1006.63
2018-10-11T03:27:38.669Z,1006.63
2018-10-11T03:28:38.647Z,1006.65
2018-10-11T03:29:38.633Z,1006.66
2018-10-11T03:30:38.609Z,1006.72
2018-10-11T03:31:38.593Z,1006.73
2018-10-11T03:32:38.571Z,1006.74
2018-10-11T03:33:38.555Z,1006.77
2018-10-11T03:34:38.533Z,1006.76
2018-10-11T03:35:38.519Z,1006.76
2018-10-11T03:36:38.496Z,1006.75
2018-10-11T03:37:38.477Z,1006.76
2018-10-11T03:38:38.604Z,1006.78
2018-10-11T03:39:38.437Z,1006.73
2018-10-11T03:40:38.421Z,1006.73
2018-10-11T03:41:38.398Z,1006.78
2018-10-11T03:42:38.379Z,1006.77
2018-10-11T03:43:38.359Z,1006.73
2018-10-11T03:44:38.341Z,1006.70
2018-10-11T03:45:38.319Z,1006.67
2018-10-11T03:46:38.366Z,1006.66
2018-10-11T03:47:38.282Z,1006.58
2018-10-11T03:48:38.266Z,1006.56
2018-10-11T03:49:38.249Z,1006.57
2018-10-11T03:50:38.221Z,1006.56
2018-10-11T03:51:38.204Z,1006.56
2018-10-11T03:52:38.186Z,1006.59
2018-10-11T03:53:38.164Z,1006.60
2018-10-11T03:54:38.146Z,1006.58
2018-10-11T03:55:38.128Z,1006.61
2018-10-11T03:56:38.107Z,1006.58
2018-10-11T03:57:38.090Z,1006.62
2018-10-11T03:58:38.070Z,1006.64
2018-10-11T03:59:38.050Z,1006.64
2018-10-11T04:00:38.031Z,1006.67
2018-10-11T04:01:38.018Z,1006.68
2018-10-11T04:02:37.990Z,1006.66
2018-10-11T04:03:37.971Z,1006.69
2018-10-11T04:04:37.953Z,1006.73
2018-10-11T04:05:37.933Z,1006.68
2018-10-11T04:06:37.919Z,1006.76
2018-10-11T04:07:37.917Z,1006.67
2018-10-11T04:08:37.885Z,1006.64
2018-10-11T04:09:37.858Z,1006.67
2018-10-11T04:10:37.836Z,1006.63
2018-10-11T04:11:37.819Z,1006.66
2018-10-11T04:12:37.798Z,1006.67
2018-10-11T04:13:37.783Z,1006.69
2018-10-11T04:14:37.758Z,1006.72
2018-10-11T04:15:37.833Z,1006.77
2018-10-11T04:16:37.724Z,1006.77
2018-10-11T04:17:37.700Z,1006.76
2018-10-11T04:18:37.690Z,1006.74
2018-10-11T04:19:37.662Z,1006.64
2018-10-11T04:20:37.652Z,1006.65
2018-10-11T04:21:37.626Z,1006.62
2018-10-11T04:22:37.604Z,1006.58
2018-10-11T04:23:37.589Z,1006.59
2018-10-11T04:24:37.568Z,1006.60
2018-10-11T04:25:37.546Z,1006.63
2018-10-11T04:26:37.537Z,1006.67
2018-10-11T04:27:37.508Z,1006.61
2018-10-11T04:28:37.489Z,1006.62
2018-10-11T04:29:37.471Z,1006.65
2018-10-11T04:30:37.449Z,1006.61
2018-10-11T04:31:37.439Z,1006.62
2018-10-11T04:32:37.411Z,1006.57
2018-10-11T04:33:37.394Z,1006.61
2018-10-11T04:34:37.372Z,1006.59
2018-10-11T04:35:37.352Z,1006.62
2018-10-11T04:36:37.340Z,1006.57
2018-10-11T04:37:37.316Z,1006.56
2018-10-11T04:38:37.302Z,1006.52
2018-10-11T04:39:37.276Z,1006.54
2018-10-11T04:40:37.256Z,1006.53
2018-10-11T04:41:37.236Z,1006.52
2018-10-11T04:42:37.294Z,1006.52
2018-10-11T04:43:37.197Z,1006.53
2018-10-11T04:44:37.179Z,1006.53
2018-10-11T04:45:37.159Z,1006.54
2018-10-11T04:46:37.140Z,1006.58
2018-10-11T04:47:37.122Z,1006.60
2018-10-11T04:48:37.102Z,1006.58
2018-10-11T04:49:37.087Z,1006.60
2018-10-11T04:50:37.062Z,1006.59
2018-10-11T04:51:37.045Z,1006.61
2018-10-11T04:52:37.025Z,1006.62
2018-10-11T04:53:37.086Z,1006.65
2018-10-11T04:54:36.984Z,1006.68
2018-10-11T04:55:36.965Z,1006.67
2018-10-11T04:56:36.944Z,1006.66
2018-10-11T04:57:36.924Z,1006.62
2018-10-11T04:58:36.919Z,1006.72
2018-10-11T04:59:36.926Z,1006.72
2018-10-11T05:00:36.868Z,1006.71
2018-10-11T05:01:36.847Z,1006.69
2018-10-11T05:02:36.831Z,1006.69
2018-10-11T05:03:36.809Z,1006.66
2018-10-11T05:04:36.791Z,1006.66
2018-10-11T05:05:36.771Z,1006.65
2018-10-11T05:06:36.756Z,1006.67
2018-10-11T05:07:36.735Z,1006.72
2018-10-11T05:08:36.717Z,1006.72
2018-10-11T05:09:36.692Z,1006.72
2018-10-11T05:10:36.674Z,1006.73
2018-10-11T05:11:36.656Z,1006.72
2018-10-11T05:12:36.639Z,1006.73
2018-10-11T05:13:36.619Z,1006.73
2018-10-11T05:14:36.596Z,1006.73
2018-10-11T05:15:36.576Z,1006.72
2018-10-11T05:16:36.557Z,1006.72
2018-10-11T05:17:36.538Z,1006.72
2018-10-11T05:18:36.526Z,1006.75
2018-10-11T05:19:36.499Z,1006.74
2018-10-11T05:20:36.481Z,1006.70
2018-10-11T05:21:36.537Z,1006.70
2018-10-11T05:22:36.451Z,1006.71
2018-10-11T05:23:36.422Z,1006.76
2018-10-11T05:24:36.401Z,1006.76
2018-10-11T05:25:36.392Z,1006.82
2018-10-11T05:26:36.373Z,1006.86
2018-10-11T05:27:36.352Z,1006.89
2018-10-11T05:28:36.323Z,1006.92
2018-10-11T05:29:36.305Z,1006.94
2018-10-11T05:30:36.283Z,1006.96
2018-10-11T05:31:36.275Z,1006.95
2018-10-11T05:32:36.245Z,1006.93
2018-10-11T05:33:36.231Z,1006.93
2018-10-11T05:34:36.208Z,1006.92
2018-10-11T05:35:36.186Z,1006.90
2018-10-11T05:36:36.169Z,1006.82
2018-10-11T05:37:36.145Z,1006.84
2018-10-11T05:38:36.127Z,1006.81
2018-10-11T05:39:36.108Z,1006.80
2018-10-11T05:40:36.091Z,1006.79
2018-10-11T05:41:36.071Z,1006.79
2018-10-11T05:42:36.049Z,1006.81
2018-10-11T05:43:36.032Z,1006.79
2018-10-11T05:44:36.020Z,1006.82
2018-10-11T05:45:35.992Z,1006.80
2018-10-11T05:46:35.971Z,1006.83
2018-10-11T05:47:35.951Z,1006.84
2018-10-11T05:48:35.936Z,1006.84
2018-10-11T05:49:35.921Z,1006.85
2018-10-11T05:50:35.892Z,1006.85
2018-10-11T05:51:35.875Z,1006.84
2018-10-11T05:52:35.855Z,1006.83
2018-10-11T05:53:35.834Z,1006.86
2018-10-11T05:54:35.813Z,1006.86
2018-10-11T05:55:35.800Z,1006.87
2018-10-11T05:56:35.823Z,1006.86
2018-10-11T05:57:35.756Z,1006.84
2018-10-11T05:58:35.743Z,1006.87
2018-10-11T05:59:35.727Z,1006.86
2018-10-11T06:00:35.698Z,1006.83
2018-10-11T06:01:35.679Z,1006.85
2018-10-11T06:02:35.656Z,1006.92
2018-10-11T06:03:35.637Z,1006.91
2018-10-11T06:04:35.617Z,1006.89
2018-10-11T06:05:35.598Z,1006.93
2018-10-11T06:06:35.587Z,1006.93
2018-10-11T06:07:35.562Z,1006.93
2018-10-11T06:08:35.540Z,1006.92
2018-10-11T06:09:35.524Z,1006.95
2018-10-11T06:10:35.499Z,1006.94
2018-10-11T06:11:35.481Z,1006.92
2018-10-11T06:12:35.460Z,1006.89
2018-10-11T06:13:35.443Z,1006.90
2018-10-11T06:14:35.422Z,1006.91
2018-10-11T06:15:35.401Z,1006.90
2018-10-11T06:16:35.383Z,1006.93
2018-10-11T06:17:35.413Z,1006.92
2018-10-11T06:18:35.345Z,1006.95
2018-10-11T06:19:35.326Z,1006.99
2018-10-11T06:20:35.310Z,1007.01
2018-10-11T06:21:35.285Z,1007.01
2018-10-11T06:22:35.271Z,1007.00
2018-10-11T06:23:35.243Z,1007.01
2018-10-11T06:24:35.239Z,1006.98
2018-10-11T06:25:35.206Z,1006.99
2018-10-11T06:26:35.187Z,1007.02
2018-10-11T06:27:35.175Z,1007.05
2018-10-11T06:28:35.151Z,1007.07
2018-10-11T06:29:35.130Z,1007.06
2018-10-11T06:30:35.116Z,1007.07
2018-10-11T06:31:35.098Z,1007.10
2018-10-11T06:32:35.076Z,1007.11
2018-10-11T06:33:35.048Z,1007.10
2018-10-11T06:34:35.029Z,1007.13
2018-10-11T06:35:35.012Z,1007.11
2018-10-11T06:36:35.041Z,1007.14
2018-10-11T06:37:34.967Z,1007.19
2018-10-11T06:38:34.952Z,1007.19
2018-10-11T06:39:34.929Z,1007.20
2018-10-11T06:40:34.913Z,1007.22
2018-10-11T06:41:34.900Z,1007.23
2018-10-11T06:42:34.896Z,1007.23
2018-10-11T06:43:34.854Z,1007.18
2018-10-11T06:44:34.830Z,1007.17
2018-10-11T06:45:34.812Z,1007.19
2018-10-11T06:46:34.792Z,1007.23
2018-10-11T06:47:34.775Z,1007.19
2018-10-11T06:48:34.753Z,1007.22
2018-10-11T06:49:34.733Z,1007.22
2018-10-11T06:50:34.711Z,1007.19
2018-10-11T06:51:34.694Z,1007.18
2018-10-11T06:52:34.675Z,1007.19
2018-10-11T06:53:34.654Z,1007.19
2018-10-11T06:54:34.638Z,1007.17
2018-10-11T06:55:34.616Z,1007.14
2018-10-11T06:56:34.596Z,1007.14
2018-10-11T06:57:34.579Z,1007.12
2018-10-11T06:58:34.560Z,1007.09
2018-10-11T06:59:34.541Z,1007.12
2018-10-11T07:00:34.516Z,1007.12
2018-10-11T07:01:34.515Z,1007.13
2018-10-11T07:02:34.476Z,1007.14
2018-10-11T07:03:34.458Z,1007.16
2018-10-11T07:04:34.441Z,1007.20
2018-10-11T07:05:34.621Z,1007.18
2018-10-11T07:06:34.404Z,1007.25
2018-10-11T07:07:34.381Z,1007.25
2018-10-11T07:08:34.362Z,1007.24
2018-10-11T07:09:34.344Z,1007.28
2018-10-11T07:10:34.326Z,1007.31
2018-10-11T07:11:34.304Z,1007.32
2018-10-11T07:12:34.285Z,1007.33
2018-10-11T07:13:34.269Z,1007.36
2018-10-11T07:14:34.245Z,1007.35
2018-10-11T07:15:34.226Z,1007.34
2018-10-11T07:16:34.208Z,1007.38
2018-10-11T07:17:34.187Z,1007.36
2018-10-11T07:18:34.168Z,1007.36
2018-10-11T07:19:34.153Z,1007.37
2018-10-11T07:20:34.130Z,1007.39
2018-10-11T07:21:34.110Z,1007.46
2018-10-11T07:22:34.090Z,1007.43
2018-10-11T07:23:34.073Z,1007.46
2018-10-11T07:24:34.053Z,1007.49
2018-10-11T07:25:34.031Z,1007.45
2018-10-11T07:26:34.017Z,1007.46
2018-10-11T07:27:34.003Z,1007.46
2018-10-11T07:28:33.975Z,1007.49
2018-10-11T07:29:33.962Z,1007.50
2018-10-11T07:30:33.937Z,1007.49
2018-10-11T07:31:33.930Z,1007.53
2018-10-11T07:32:33.898Z,1007.56
2018-10-11T07:33:33.876Z,1007.56
2018-10-11T07:34:33.915Z,1007.54
2018-10-11T07:35:33.988Z,1007.54
2018-10-11T07:36:33.822Z,1007.54
2018-10-11T07:37:33.804Z,1007.59
2018-10-11T07:38:33.781Z,1007.60
2018-10-11T07:39:33.767Z,1007.63
2018-10-11T07:40:33.874Z,1007.65
2018-10-11T07:41:33.727Z,1007.68
2018-10-11T07:42:33.705Z,1007.73
2018-10-11T07:43:33.685Z,1007.74
2018-10-11T07:44:33.667Z,1007.74
2018-10-11T07:45:33.648Z,1007.74
2018-10-11T07:46:33.629Z,1007.74
2018-10-11T07:47:33.610Z,1007.71
2018-10-11T07:48:33.592Z,1007.76
2018-10-11T07:49:33.571Z,1007.74
2018-10-11T07:50:33.554Z,1007.78
2018-10-11T07:51:33.534Z,1007.79
2018-10-11T07:52:33.515Z,1007.83
2018-10-11T07:53:33.495Z,1007.82
2018-10-11T07:54:33.475Z,1007.83
2018-10-11T07:55:33.468Z,1007.79
2018-10-11T07:56:33.439Z,1007.79
2018-10-11T07:57:33.420Z,1007.80
2018-10-11T07:58:33.398Z,1007.77
2018-10-11T07:59:33.381Z,1007.78
2018-10-11T08:00:33.362Z,1007.74
2018-10-11T08:01:33.355Z,1007.76
2018-10-11T08:02:33.325Z,1007.75
2018-10-11T08:03:33.358Z,1007.70
2018-10-11T08:04:33.289Z,1007.73
2018-10-11T08:05:33.267Z,1007.78
2018-10-11T08:06:33.248Z,1007.75
2018-10-11T08:07:33.313Z,1007.80
2018-10-11T08:08:33.284Z,1007.80
2018-10-11T08:09:33.204Z,1007.77
2018-10-11T08:10:33.255Z,1007.71
2018-10-11T08:11:33.443Z,1007.72
2018-10-11T08:12:33.138Z,1007.73
2018-10-11T08:13:33.268Z,1007.74
2018-10-11T08:14:33.098Z,1007.76
2018-10-11T08:15:33.082Z,1007.79
2018-10-11T08:16:33.158Z,1007.78
2018-10-11T08:17:33.545Z,1007.83
2018-10-11T08:18:33.053Z,1007.86
2018-10-11T08:19:33.146Z,1007.88
2018-10-11T08:20:33.065Z,1007.89
2018-10-11T08:21:33.012Z,1007.92
2018-10-11T08:22:32.947Z,1007.91
2018-10-11T08:23:32.930Z,1007.93
2018-10-11T08:24:32.936Z,1007.91
2018-10-11T08:25:33.279Z,1007.89
2018-10-11T08:26:32.947Z,1007.90
2018-10-11T08:27:32.858Z,1007.92
2018-10-11T08:28:32.843Z,1007.94
2018-10-11T08:29:32.817Z,1007.98
2018-10-11T08:30:32.799Z,1007.97
2018-10-11T08:31:32.785Z,1007.99
2018-10-11T08:32:32.949Z,1008.03
2018-10-11T08:33:32.741Z,1008.04
2018-10-11T08:34:32.722Z,1008.08
2018-10-11T08:35:32.707Z,1007.99
2018-10-11T08:36:32.688Z,1008.05
2018-10-11T08:37:32.707Z,1008.04
2018-10-11T08:38:32.695Z,1008.03
2018-10-11T08:39:32.635Z,1008.02
2018-10-11T08:40:32.623Z,1007.99
2018-10-11T08:41:32.595Z,1008.02
2018-10-11T08:42:32.582Z,1007.99
2018-10-11T08:43:32.642Z,1008.01
2018-10-11T08:44:32.538Z,1008.00
2018-10-11T08:45:32.521Z,1008.04
2018-10-11T08:46:32.502Z,1008.05
2018-10-11T08:47:32.482Z,1008.02
2018-10-11T08:48:32.465Z,1008.04
2018-10-11T08:49:32.444Z,1008.02
2018-10-11T08:50:32.464Z,1008.03
2018-10-11T08:51:32.411Z,1008.03
2018-10-11T08:52:32.412Z,1008.03
2018-10-11T08:53:32.433Z,1008.04
2018-10-11T08:54:32.355Z,1008.05
2018-10-11T08:55:32.453Z,1008.03
2018-10-11T08:56:32.321Z,1008.05
2018-10-11T08:57:32.301Z,1008.00
2018-10-11T08:58:32.283Z,1008.03
2018-10-11T08:59:32.277Z,1008.05
2018-10-11T09:00:32.244Z,1008.00
2018-10-11T09:01:32.275Z,1008.03
2018-10-11T09:02:32.214Z,1008.02
2018-10-11T09:03:32.354Z,1008.05
2018-10-11T09:04:32.170Z,1008.06
2018-10-11T09:05:32.152Z,1008.01
2018-10-11T09:06:32.133Z,1008.08
2018-10-11T09:07:32.125Z,1008.06
2018-10-11T09:08:32.102Z,1008.05
2018-10-11T09:09:32.145Z,1008.01
2018-10-11T09:10:38.291Z,1008.00
2018-10-11T09:11:32.152Z,1008.02
2018-10-11T09:12:32.024Z,1008.05
2018-10-11T09:13:32.005Z,1008.03
2018-10-11T09:14:31.986Z,1008.01
2018-10-11T09:15:31.982Z,1008.05
2018-10-11T09:16:31.953Z,1008.02
2018-10-11T09:17:31.935Z,1008.03
2018-10-11T09:18:31.915Z,1008.04
2018-10-11T09:19:31.898Z,1008.07
2018-10-11T09:20:31.880Z,1008.10
2018-10-11T09:21:31.863Z,1008.10
2018-10-11T09:22:31.845Z,1008.10
2018-10-11T09:23:31.830Z,1008.06
2018-10-11T09:24:31.811Z,1008.04
2018-10-11T09:25:31.791Z,1008.04
2018-10-11T09:26:31.774Z,1008.02
2018-10-11T09:27:31.755Z,1008.06
2018-10-11T09:28:31.747Z,1008.06
2018-10-11T09:29:31.719Z,1008.07
2018-10-11T09:30:31.830Z,1008.08
2018-10-11T09:31:31.682Z,1008.07
2018-10-11T09:32:31.664Z,1008.08
2018-10-11T09:33:31.650Z,1008.06
2018-10-11T09:34:31.627Z,1008.05
2018-10-11T09:35:31.613Z,1008.08
2018-10-11T09:36:31.661Z,1008.09
2018-10-11T09:37:31.632Z,1008.11
2018-10-11T09:38:31.558Z,1008.12
2018-10-11T09:39:31.543Z,1008.11
2018-10-11T09:40:31.526Z,1008.10
2018-10-11T09:41:31.504Z,1008.14
2018-10-11T09:42:31.490Z,1008.12
2018-10-11T09:43:31.473Z,1008.15
2018-10-11T09:44:31.456Z,1008.12
2018-10-11T09:45:31.436Z,1008.13
2018-10-11T09:46:31.418Z,1008.20
2018-10-11T09:47:31.397Z,1008.18
2018-10-11T09:48:31.383Z,1008.19
2018-10-11T09:49:31.367Z,1008.16
2018-10-11T09:50:31.347Z,1008.15
2018-10-11T09:51:31.333Z,1008.21
2018-10-11T09:52:31.316Z,1008.24
2018-10-11T09:53:31.300Z,1008.27
2018-10-11T09:54:31.362Z,1008.26
2018-10-11T09:55:31.263Z,1008.30
2018-10-11T09:56:31.443Z,1008.33
2018-10-11T09:57:31.224Z,1008.30
2018-10-11T09:58:31.217Z,1008.33
2018-10-11T09:59:31.197Z,1008.29
2018-10-11T10:00:31.177Z,1008.33
2018-10-11T10:01:31.157Z,1008.30
2018-10-11T10:02:31.147Z,1008.31
2018-10-11T10:03:31.123Z,1008.24
2018-10-11T10:04:31.105Z,1008.20
2018-10-11T10:05:31.138Z,1008.20
2018-10-11T10:06:31.074Z,1008.21
2018-10-11T10:07:31.056Z,1008.19
2018-10-11T10:08:31.049Z,1008.21
2018-10-11T10:09:31.018Z,1008.21
2018-10-11T10:10:31.001Z,1008.23
2018-10-11T10:11:30.984Z,1008.21
2018-10-11T10:12:30.967Z,1008.22
2018-10-11T10:13:30.950Z,1008.20
2018-10-11T10:14:30.937Z,1008.22
2018-10-11T10:15:30.923Z,1008.22
2018-10-11T10:16:30.902Z,1008.17
2018-10-11T10:17:30.881Z,1008.20
2018-10-11T10:18:30.865Z,1008.21
2018-10-11T10:19:30.849Z,1008.19
2018-10-11T10:20:30.831Z,1008.19
2018-10-11T10:21:30.880Z,1008.15
2018-10-11T10:22:30.807Z,1008.19
2018-10-11T10:23:30.784Z,1008.17
2018-10-11T10:24:31.010Z,1008.18
2018-10-11T10:25:30.749Z,1008.21
2018-10-11T10:26:30.744Z,1008.19
2018-10-11T10:27:30.821Z,1008.23
2018-10-11T10:28:30.700Z,1008.21
2018-10-11T10:29:30.684Z,1008.21
2018-10-11T10:30:30.664Z,1008.19
2018-10-11T10:31:30.658Z,1008.19
2018-10-11T10:32:30.638Z,1008.16
2018-10-11T10:33:30.623Z,1008.17
2018-10-11T10:34:30.598Z,1008.16
2018-10-11T10:35:30.582Z,1008.18
2018-10-11T10:36:30.566Z,1008.15
2018-10-11T10:37:30.550Z,1008.12
2018-10-11T10:38:30.573Z,1008.07
2018-10-11T10:39:30.517Z,1008.02
2018-10-11T10:40:30.501Z,1008.00
2018-10-11T10:41:30.486Z,1008.01
2018-10-11T10:42:30.467Z,1008.00
2018-10-11T10:43:30.450Z,1007.98
2018-10-11T10:44:30.437Z,1008.00
2018-10-11T10:45:30.423Z,1008.00
2018-10-11T10:46:30.401Z,1007.98
2018-10-11T10:47:30.385Z,1008.00
2018-10-11T10:48:30.375Z,1007.99
2018-10-11T10:49:30.352Z,1007.96
2018-10-11T10:50:30.336Z,1007.94
2018-10-11T10:51:30.332Z,1007.95
2018-10-11T10:52:30.305Z,1007.95
2018-10-11T10:53:30.286Z,1007.95
2018-10-11T10:54:30.274Z,1007.93
2018-10-11T10:55:30.256Z,1007.88
2018-10-11T10:56:30.240Z,1007.88
2018-10-11T10:57:30.225Z,1007.89
2018-10-11T10:58:30.237Z,1007.83
2018-10-11T10:59:30.202Z,1007.82
2018-10-11T11:00:30.177Z,1007.80
2018-10-11T11:01:30.161Z,1007.80
2018-10-11T11:02:30.147Z,1007.79
2018-10-11T11:03:30.133Z,1007.80
2018-10-11T11:04:30.113Z,1007.82
2018-10-11T11:05:30.107Z,1007.79
2018-10-11T11:06:30.079Z,1007.82
2018-10-11T11:07:30.122Z,1007.80
2018-10-11T11:08:30.054Z,1007.75
2018-10-11T11:09:30.028Z,1007.77
2018-10-11T11:10:30.022Z,1007.80
2018-10-11T11:11:30.012Z,1007.78
2018-10-11T11:12:29.984Z,1007.79
2018-10-11T11:13:29.966Z,1007.79
2018-10-11T11:14:29.953Z,1007.76
2018-10-11T11:15:29.934Z,1007.73
2018-10-11T11:16:29.919Z,1007.72
2018-10-11T11:17:29.908Z,1007.71
2018-10-11T11:18:29.892Z,1007.66
2018-10-11T11:19:29.873Z,1007.71
2018-10-11T11:20:29.857Z,1007.66
2018-10-11T11:21:29.845Z,1007.69
2018-10-11T11:22:29.823Z,1007.66
2018-10-11T11:23:29.813Z,1007.66
2018-10-11T11:24:29.793Z,1007.68
2018-10-11T11:25:29.777Z,1007.69
2018-10-11T11:26:29.768Z,1007.64
2018-10-11T11:27:29.751Z,1007.70
2018-10-11T11:28:29.738Z,1007.72
2018-10-11T11:29:29.714Z,1007.67
2018-10-11T11:30:29.702Z,1007.71
2018-10-11T11:31:29.684Z,1007.68
2018-10-11T11:32:29.666Z,1007.65
2018-10-11T11:33:29.653Z,1007.67
2018-10-11T11:34:29.636Z,1007.68
2018-10-11T11:35:29.626Z,1007.67
2018-10-11T11:36:29.604Z,1007.67
2018-10-11T11:37:29.593Z,1007.69
2018-10-11T11:38:29.574Z,1007.66
2018-10-11T11:39:29.558Z,1007.65
2018-10-11T11:40:29.546Z,1007.58
2018-10-11T11:41:29.528Z,1007.57
2018-10-11T11:42:29.514Z,1007.59
2018-10-11T11:43:29.502Z,1007.63
2018-10-11T11:44:29.481Z,1007.59
2018-10-11T11:45:29.468Z,1007.60
2018-10-11T11:46:29.450Z,1007.60
2018-10-11T11:47:29.436Z,1007.59
2018-10-11T11:48:29.420Z,1007.60
2018-10-11T11:49:29.405Z,1007.57
2018-10-11T11:50:29.455Z,1007.54
2018-10-11T11:51:29.373Z,1007.56
2018-10-11T11:52:29.364Z,1007.57
2018-10-11T11:53:29.341Z,1007.56
2018-10-11T11:54:29.328Z,1007.55
2018-10-11T11:55:29.310Z,1007.52
2018-10-11T11:56:29.298Z,1007.55
2018-10-11T11:57:29.281Z,1007.54
2018-10-11T11:58:29.276Z,1007.51
2018-10-11T11:59:29.254Z,1007.48
2018-10-11T12:00:29.235Z,1007.48
2018-10-11T12:01:29.239Z,1007.44
2018-10-11T12:02:29.217Z,1007.43
2018-10-11T12:03:29.196Z,1007.39
2018-10-11T12:04:29.186Z,1007.41
2018-10-11T12:05:29.158Z,1007.37